Airfield :
LOGIN :

Register | Disclaimer

   EN    FR    IT 

 










Legend :    VFR   Marginal VFR   IFR   Intensive IFR   Very Intensive IFR
Visi :
Ceiling :
>= 8 km
>= 3000ft
5 to 8 km
1000 to 3000 ft
1500m to 5 km
500 to 1000 ft
800 to 1500m
200 to 500 ft
< 800m
< 200 ft
Symbols :   Thunderstorms  Fog  Heavy snow  Heavy precipitations  Wind > 20 kt
SIGMETs :     Misc.  Thunderstorms  Icing  Turbulence  Mountain Waves  Volcanic Ashes






- Airport Elevation : 1213 ft
- IATA code : SCQ


LEST - Santiago de Compostela

CURRENT METAR :
  • 122335Z 30006KT 260V340 4000 RA SCT005 BKN010 BKN020 14/14 Q1007 TEMPO 1000 RA BKN005

EXPIRED METARs :
  • 122300Z 29008KT 260V320 8000 -RA FEW005 SCT010 BKN020 14/14 Q1007 TEMPO 1000 RA BKN010
  • 122230Z 30011KT 240V340 7000 -RA FEW003 SCT008 BKN015 14/14 Q1007 TEMPO 1000 RA BKN010
  • 122200Z 29008KT 240V340 7000 -RA BKN003 BKN010 14/14 Q1007 TEMPO 1500 RA
  • 122130Z 27008KT 240V320 4000 RA BR BKN003 BKN008 14/14 Q1007 TEMPO 1500
  • 122100Z 28006KT 220V340 3000 RA BR BKN003 BKN006 14/14 Q1007 TEMPO 1500

TAF TAF LEST
Valid from the 13 at 00:00 until the 14 at 00:00 UTC


122300Z 1300/1324 27009KT 7000 SCT008 BKN018 TX14/1300Z TN06/1324Z
TEMPO 1300/1308 3000 -RA BR BKN010
TEMPO 1300/1304 1000 RA BCFG BKN005
BECMG 1301/1304 36010KT
PROB40
TEMPO 1302/1304 36015G25KT SHRA SCT025CB
PROB30
TEMPO 1300/1306 0800 BCFG VV001
BECMG 1313/1316 26009KT
TEMPO 1318/1324 27015G25KT 3000 RA SHRA BKN010 BKN020TCU



MET'MAP, your aeronautical weather chart ! - Copyright ORBIFLY December 2007 - Disclaimer

ORBIFLY MET'MAP TEAM :

Programming & Development : Alexandra Zaïnal
Concept & Development : Baudouin d'Aumeries
Co-Development & Prog : Marc-Olivier Méhu
Technical & hardware support : Manuel Goepfert

Contact : metmap@orbifly.com




SOURCES & CREDITS :

   NOAA